sensor_id;sensor_type;location;lat;lon;timestamp;P1;durP1;ratioP1;P2;durP2;ratioP2
27071;SDS011;14613;46.308;25.288;2022-07-31T00:00:20;5.13;;;3.60;;
27071;SDS011;14613;46.308;25.288;2022-07-31T00:02:46;7.47;;;4.05;;
27071;SDS011;14613;46.308;25.288;2022-07-31T00:05:12;4.95;;;4.25;;
27071;SDS011;14613;46.308;25.288;2022-07-31T00:07:38;5.00;;;4.00;;
27071;SDS011;14613;46.308;25.288;2022-07-31T00:10:04;4.25;;;3.58;;
27071;SDS011;14613;46.308;25.288;2022-07-31T00:12:31;3.70;;;3.40;;
27071;SDS011;14613;46.308;25.288;2022-07-31T00:14:59;4.05;;;3.75;;
27071;SDS011;14613;46.308;25.288;2022-07-31T00:17:26;4.05;;;3.65;;
27071;SDS011;14613;46.308;25.288;2022-07-31T00:19:51;4.57;;;4.18;;
27071;SDS011;14613;46.308;25.288;2022-07-31T00:22:18;5.05;;;4.40;;
27071;SDS011;14613;46.308;25.288;2022-07-31T00:24:44;5.43;;;3.38;;
27071;SDS011;14613;46.308;25.288;2022-07-31T00:27:10;5.22;;;3.72;;
27071;SDS011;14613;46.308;25.288;2022-07-31T00:29:36;7.13;;;4.03;;
27071;SDS011;14613;46.308;25.288;2022-07-31T00:32:02;5.57;;;3.90;;
27071;SDS011;14613;46.308;25.288;2022-07-31T00:34:28;3.88;;;3.50;;
27071;SDS011;14613;46.308;25.288;2022-07-31T00:36:54;6.75;;;4.22;;
27071;SDS011;14613;46.308;25.288;2022-07-31T00:39:20;5.80;;;3.80;;
27071;SDS011;14613;46.308;25.288;2022-07-31T00:41:48;4.32;;;3.88;;
27071;SDS011;14613;46.308;25.288;2022-07-31T00:44:14;10.75;;;4.10;;
27071;SDS011;14613;46.308;25.288;2022-07-31T00:46:40;4.72;;;4.30;;
27071;SDS011;14613;46.308;25.288;2022-07-31T00:49:07;4.90;;;4.07;;
27071;SDS011;14613;46.308;25.288;2022-07-31T00:51:39;4.03;;;3.58;;
27071;SDS011;14613;46.308;25.288;2022-07-31T00:54:05;4.55;;;4.00;;
27071;SDS011;14613;46.308;25.288;2022-07-31T00:56:33;5.40;;;3.60;;
27071;SDS011;14613;46.308;25.288;2022-07-31T00:58:59;4.43;;;4.05;;
27071;SDS011;14613;46.308;25.288;2022-07-31T01:01:25;4.45;;;4.03;;
27071;SDS011;14613;46.308;25.288;2022-07-31T01:03:51;4.72;;;3.40;;
27071;SDS011;14613;46.308;25.288;2022-07-31T01:06:17;3.92;;;3.63;;
27071;SDS011;14613;46.308;25.288;2022-07-31T01:08:44;5.05;;;3.65;;
27071;SDS011;14613;46.308;25.288;2022-07-31T01:11:11;4.72;;;3.85;;
27071;SDS011;14613;46.308;25.288;2022-07-31T01:13:40;4.03;;;3.70;;
27071;SDS011;14613;46.308;25.288;2022-07-31T01:16:12;5.70;;;4.22;;
27071;SDS011;14613;46.308;25.288;2022-07-31T01:18:39;5.78;;;3.95;;
27071;SDS011;14613;46.308;25.288;2022-07-31T01:21:07;4.40;;;3.70;;
27071;SDS011;14613;46.308;25.288;2022-07-31T01:32:03;5.30;;;4.60;;
27071;SDS011;14613;46.308;25.288;2022-07-31T01:37:16;5.70;;;4.07;;
27071;SDS011;14613;46.308;25.288;2022-07-31T01:39:50;9.45;;;4.22;;
27071;SDS011;14613;46.308;25.288;2022-07-31T01:42:22;4.30;;;3.90;;
27071;SDS011;14613;46.308;25.288;2022-07-31T01:44:50;4.40;;;3.78;;
27071;SDS011;14613;46.308;25.288;2022-07-31T01:47:19;4.80;;;3.97;;
27071;SDS011;14613;46.308;25.288;2022-07-31T01:49:47;4.70;;;4.30;;
27071;SDS011;14613;46.308;25.288;2022-07-31T01:52:15;5.95;;;4.05;;
27071;SDS011;14613;46.308;25.288;2022-07-31T01:54:42;12.40;;;4.38;;
27071;SDS011;14613;46.308;25.288;2022-07-31T01:57:09;7.15;;;4.32;;
27071;SDS011;14613;46.308;25.288;2022-07-31T01:59:36;4.40;;;4.00;;
27071;SDS011;14613;46.308;25.288;2022-07-31T02:02:02;6.90;;;4.43;;
27071;SDS011;14613;46.308;25.288;2022-07-31T02:04:30;4.45;;;4.05;;
27071;SDS011;14613;46.308;25.288;2022-07-31T02:06:57;4.38;;;4.00;;
27071;SDS011;14613;46.308;25.288;2022-07-31T02:09:25;3.90;;;3.60;;
27071;SDS011;14613;46.308;25.288;2022-07-31T02:11:52;4.35;;;3.88;;
27071;SDS011;14613;46.308;25.288;2022-07-31T02:14:19;4.38;;;3.90;;
27071;SDS011;14613;46.308;25.288;2022-07-31T02:16:46;4.65;;;4.25;;
27071;SDS011;14613;46.308;25.288;2022-07-31T02:19:13;4.38;;;3.97;;
27071;SDS011;14613;46.308;25.288;2022-07-31T02:21:41;6.82;;;4.07;;
27071;SDS011;14613;46.308;25.288;2022-07-31T02:24:07;6.50;;;4.15;;
27071;SDS011;14613;46.308;25.288;2022-07-31T02:26:33;4.47;;;4.07;;
27071;SDS011;14613;46.308;25.288;2022-07-31T02:29:00;6.53;;;4.03;;
27071;SDS011;14613;46.308;25.288;2022-07-31T02:31:27;4.00;;;3.55;;
27071;SDS011;14613;46.308;25.288;2022-07-31T02:33:56;4.55;;;4.10;;
27071;SDS011;14613;46.308;25.288;2022-07-31T02:36:23;4.45;;;4.05;;
27071;SDS011;14613;46.308;25.288;2022-07-31T02:38:50;7.78;;;4.57;;
27071;SDS011;14613;46.308;25.288;2022-07-31T02:41:19;5.07;;;4.40;;
27071;SDS011;14613;46.308;25.288;2022-07-31T02:43:46;6.05;;;4.25;;
27071;SDS011;14613;46.308;25.288;2022-07-31T02:46:13;6.00;;;3.38;;
27071;SDS011;14613;46.308;25.288;2022-07-31T02:48:39;9.27;;;3.65;;
27071;SDS011;14613;46.308;25.288;2022-07-31T02:51:06;4.40;;;4.00;;
27071;SDS011;14613;46.308;25.288;2022-07-31T02:53:33;5.65;;;3.97;;
27071;SDS011;14613;46.308;25.288;2022-07-31T02:55:59;5.50;;;4.18;;
27071;SDS011;14613;46.308;25.288;2022-07-31T02:58:28;10.23;;;4.22;;
27071;SDS011;14613;46.308;25.288;2022-07-31T03:01:01;7.65;;;4.78;;
27071;SDS011;14613;46.308;25.288;2022-07-31T03:03:29;5.05;;;4.55;;
27071;SDS011;14613;46.308;25.288;2022-07-31T03:05:55;6.72;;;4.72;;
27071;SDS011;14613;46.308;25.288;2022-07-31T03:08:21;5.10;;;4.60;;
27071;SDS011;14613;46.308;25.288;2022-07-31T03:10:47;9.18;;;4.65;;
27071;SDS011;14613;46.308;25.288;2022-07-31T03:13:12;6.90;;;4.65;;
27071;SDS011;14613;46.308;25.288;2022-07-31T03:15:39;4.85;;;4.43;;
27071;SDS011;14613;46.308;25.288;2022-07-31T03:18:07;4.80;;;4.35;;
27071;SDS011;14613;46.308;25.288;2022-07-31T03:20:35;6.07;;;4.40;;
27071;SDS011;14613;46.308;25.288;2022-07-31T03:23:03;4.90;;;4.22;;
27071;SDS011;14613;46.308;25.288;2022-07-31T03:25:30;6.68;;;4.85;;
27071;SDS011;14613;46.308;25.288;2022-07-31T03:27:57;5.65;;;4.72;;
27071;SDS011;14613;46.308;25.288;2022-07-31T03:30:24;6.53;;;5.15;;
27071;SDS011;14613;46.308;25.288;2022-07-31T03:32:50;9.93;;;5.60;;
27071;SDS011;14613;46.308;25.288;2022-07-31T03:35:17;8.40;;;6.13;;
27071;SDS011;14613;46.308;25.288;2022-07-31T03:37:43;7.95;;;5.80;;
27071;SDS011;14613;46.308;25.288;2022-07-31T03:40:10;8.00;;;5.10;;
27071;SDS011;14613;46.308;25.288;2022-07-31T03:42:36;6.05;;;4.95;;
27071;SDS011;14613;46.308;25.288;2022-07-31T03:45:02;7.70;;;4.70;;
27071;SDS011;14613;46.308;25.288;2022-07-31T03:47:29;5.53;;;4.95;;
27071;SDS011;14613;46.308;25.288;2022-07-31T03:49:56;5.95;;;4.88;;
27071;SDS011;14613;46.308;25.288;2022-07-31T03:52:24;8.30;;;5.15;;
27071;SDS011;14613;46.308;25.288;2022-07-31T03:54:50;6.85;;;5.35;;
27071;SDS011;14613;46.308;25.288;2022-07-31T03:57:16;5.78;;;5.13;;
27071;SDS011;14613;46.308;25.288;2022-07-31T03:59:43;7.28;;;4.60;;
27071;SDS011;14613;46.308;25.288;2022-07-31T04:02:10;7.65;;;4.95;;
27071;SDS011;14613;46.308;25.288;2022-07-31T04:04:37;7.38;;;5.80;;
27071;SDS011;14613;46.308;25.288;2022-07-31T04:07:06;7.32;;;4.78;;
27071;SDS011;14613;46.308;25.288;2022-07-31T04:09:31;5.22;;;4.72;;
27071;SDS011;14613;46.308;25.288;2022-07-31T04:11:57;13.88;;;5.82;;
27071;SDS011;14613;46.308;25.288;2022-07-31T04:14:23;6.07;;;5.47;;
27071;SDS011;14613;46.308;25.288;2022-07-31T04:16:48;5.45;;;4.97;;
27071;SDS011;14613;46.308;25.288;2022-07-31T04:19:14;8.30;;;4.70;;
27071;SDS011;14613;46.308;25.288;2022-07-31T04:21:40;5.53;;;4.72;;
27071;SDS011;14613;46.308;25.288;2022-07-31T04:24:06;6.75;;;4.85;;
27071;SDS011;14613;46.308;25.288;2022-07-31T04:26:32;5.93;;;4.72;;
27071;SDS011;14613;46.308;25.288;2022-07-31T04:28:58;4.55;;;4.15;;
27071;SDS011;14613;46.308;25.288;2022-07-31T04:31:24;4.93;;;4.13;;
27071;SDS011;14613;46.308;25.288;2022-07-31T04:33:50;5.55;;;4.45;;
27071;SDS011;14613;46.308;25.288;2022-07-31T04:36:15;7.13;;;4.50;;
27071;SDS011;14613;46.308;25.288;2022-07-31T04:38:41;6.70;;;4.90;;
27071;SDS011;14613;46.308;25.288;2022-07-31T04:41:07;4.80;;;4.40;;
27071;SDS011;14613;46.308;25.288;2022-07-31T04:43:33;6.65;;;4.22;;
27071;SDS011;14613;46.308;25.288;2022-07-31T04:45:59;4.90;;;4.40;;
27071;SDS011;14613;46.308;25.288;2022-07-31T04:48:24;5.03;;;4.53;;
27071;SDS011;14613;46.308;25.288;2022-07-31T04:50:50;4.93;;;4.22;;
27071;SDS011;14613;46.308;25.288;2022-07-31T04:53:16;4.13;;;3.83;;
27071;SDS011;14613;46.308;25.288;2022-07-31T04:55:41;6.50;;;4.10;;
27071;SDS011;14613;46.308;25.288;2022-07-31T04:58:27;5.47;;;4.53;;
27071;SDS011;14613;46.308;25.288;2022-07-31T05:00:53;6.90;;;4.55;;
27071;SDS011;14613;46.308;25.288;2022-07-31T05:03:18;4.57;;;4.13;;
27071;SDS011;14613;46.308;25.288;2022-07-31T05:05:44;5.25;;;4.50;;
27071;SDS011;14613;46.308;25.288;2022-07-31T05:08:10;5.60;;;4.78;;
27071;SDS011;14613;46.308;25.288;2022-07-31T05:10:36;5.18;;;4.47;;
27071;SDS011;14613;46.308;25.288;2022-07-31T05:13:20;5.90;;;5.03;;
27071;SDS011;14613;46.308;25.288;2022-07-31T05:15:46;6.22;;;4.53;;
27071;SDS011;14613;46.308;25.288;2022-07-31T05:18:12;5.32;;;4.82;;
27071;SDS011;14613;46.308;25.288;2022-07-31T05:20:37;8.05;;;4.30;;
27071;SDS011;14613;46.308;25.288;2022-07-31T05:23:03;5.13;;;4.00;;
27071;SDS011;14613;46.308;25.288;2022-07-31T05:25:29;7.32;;;4.60;;
27071;SDS011;14613;46.308;25.288;2022-07-31T05:27:54;6.53;;;4.28;;
27071;SDS011;14613;46.308;25.288;2022-07-31T05:30:20;9.63;;;4.15;;
27071;SDS011;14613;46.308;25.288;2022-07-31T05:32:46;5.10;;;3.97;;
27071;SDS011;14613;46.308;25.288;2022-07-31T05:35:12;4.85;;;4.35;;
27071;SDS011;14613;46.308;25.288;2022-07-31T05:37:37;6.00;;;4.80;;
27071;SDS011;14613;46.308;25.288;2022-07-31T05:40:03;5.18;;;4.68;;
27071;SDS011;14613;46.308;25.288;2022-07-31T05:42:29;4.75;;;4.35;;
27071;SDS011;14613;46.308;25.288;2022-07-31T05:44:55;4.72;;;4.32;;
27071;SDS011;14613;46.308;25.288;2022-07-31T05:47:21;4.70;;;4.30;;
27071;SDS011;14613;46.308;25.288;2022-07-31T05:49:46;12.82;;;5.75;;
27071;SDS011;14613;46.308;25.288;2022-07-31T05:52:12;4.72;;;4.32;;
27071;SDS011;14613;46.308;25.288;2022-07-31T05:54:40;6.38;;;4.10;;
27071;SDS011;14613;46.308;25.288;2022-07-31T05:57:06;6.28;;;4.68;;
27071;SDS011;14613;46.308;25.288;2022-07-31T05:59:32;4.90;;;4.45;;
27071;SDS011;14613;46.308;25.288;2022-07-31T06:01:59;5.05;;;4.55;;
27071;SDS011;14613;46.308;25.288;2022-07-31T06:04:25;4.68;;;4.18;;
27071;SDS011;14613;46.308;25.288;2022-07-31T06:06:51;4.47;;;4.07;;
27071;SDS011;14613;46.308;25.288;2022-07-31T06:09:16;5.88;;;4.22;;
27071;SDS011;14613;46.308;25.288;2022-07-31T06:11:42;4.70;;;4.20;;
27071;SDS011;14613;46.308;25.288;2022-07-31T06:14:08;5.25;;;3.95;;
27071;SDS011;14613;46.308;25.288;2022-07-31T06:16:33;4.13;;;3.72;;
27071;SDS011;14613;46.308;25.288;2022-07-31T06:18:59;4.35;;;3.78;;
27071;SDS011;14613;46.308;25.288;2022-07-31T06:21:25;8.32;;;4.53;;
27071;SDS011;14613;46.308;25.288;2022-07-31T06:23:51;6.13;;;4.28;;
27071;SDS011;14613;46.308;25.288;2022-07-31T06:26:17;7.88;;;5.00;;
27071;SDS011;14613;46.308;25.288;2022-07-31T06:28:42;4.65;;;3.72;;
27071;SDS011;14613;46.308;25.288;2022-07-31T06:31:14;4.50;;;4.10;;
27071;SDS011;14613;46.308;25.288;2022-07-31T06:33:41;3.33;;;3.03;;
27071;SDS011;14613;46.308;25.288;2022-07-31T06:36:06;4.18;;;3.70;;
27071;SDS011;14613;46.308;25.288;2022-07-31T06:38:32;3.60;;;3.30;;
27071;SDS011;14613;46.308;25.288;2022-07-31T06:40:58;6.43;;;5.43;;
27071;SDS011;14613;46.308;25.288;2022-07-31T06:43:23;4.65;;;4.22;;
27071;SDS011;14613;46.308;25.288;2022-07-31T06:45:49;4.10;;;3.40;;
27071;SDS011;14613;46.308;25.288;2022-07-31T06:48:15;7.47;;;2.67;;
27071;SDS011;14613;46.308;25.288;2022-07-31T06:50:40;4.07;;;2.65;;
27071;SDS011;14613;46.308;25.288;2022-07-31T06:53:06;5.60;;;2.67;;
27071;SDS011;14613;46.308;25.288;2022-07-31T06:55:32;4.57;;;2.90;;
27071;SDS011;14613;46.308;25.288;2022-07-31T06:57:58;2.55;;;2.38;;
27071;SDS011;14613;46.308;25.288;2022-07-31T07:00:23;3.30;;;2.80;;
27071;SDS011;14613;46.308;25.288;2022-07-31T07:02:49;3.15;;;2.85;;
27071;SDS011;14613;46.308;25.288;2022-07-31T07:05:15;2.60;;;2.40;;
27071;SDS011;14613;46.308;25.288;2022-07-31T07:07:40;3.67;;;2.95;;
27071;SDS011;14613;46.308;25.288;2022-07-31T07:10:06;3.13;;;2.67;;
27071;SDS011;14613;46.308;25.288;2022-07-31T07:12:32;7.22;;;2.28;;
27071;SDS011;14613;46.308;25.288;2022-07-31T07:14:58;3.97;;;2.30;;
27071;SDS011;14613;46.308;25.288;2022-07-31T07:17:24;3.25;;;3.05;;
27071;SDS011;14613;46.308;25.288;2022-07-31T07:19:49;8.52;;;2.97;;
27071;SDS011;14613;46.308;25.288;2022-07-31T07:22:15;2.35;;;2.15;;
27071;SDS011;14613;46.308;25.288;2022-07-31T07:24:41;2.97;;;2.72;;
27071;SDS011;14613;46.308;25.288;2022-07-31T07:27:07;2.65;;;2.45;;
27071;SDS011;14613;46.308;25.288;2022-07-31T07:29:33;2.42;;;2.22;;
27071;SDS011;14613;46.308;25.288;2022-07-31T07:31:59;3.70;;;2.42;;
27071;SDS011;14613;46.308;25.288;2022-07-31T07:34:24;6.72;;;2.88;;
27071;SDS011;14613;46.308;25.288;2022-07-31T07:36:51;3.03;;;2.75;;
27071;SDS011;14613;46.308;25.288;2022-07-31T07:39:17;2.63;;;2.42;;
27071;SDS011;14613;46.308;25.288;2022-07-31T07:41:43;3.85;;;2.85;;
27071;SDS011;14613;46.308;25.288;2022-07-31T07:44:08;3.35;;;2.80;;
27071;SDS011;14613;46.308;25.288;2022-07-31T07:46:34;5.78;;;3.20;;
27071;SDS011;14613;46.308;25.288;2022-07-31T07:49:00;3.42;;;3.13;;
27071;SDS011;14613;46.308;25.288;2022-07-31T07:51:27;6.88;;;3.30;;
27071;SDS011;14613;46.308;25.288;2022-07-31T07:53:53;4.25;;;3.58;;
27071;SDS011;14613;46.308;25.288;2022-07-31T07:56:19;3.28;;;2.67;;
27071;SDS011;14613;46.308;25.288;2022-07-31T07:58:45;5.60;;;3.20;;
27071;SDS011;14613;46.308;25.288;2022-07-31T08:01:13;7.10;;;3.63;;
27071;SDS011;14613;46.308;25.288;2022-07-31T08:03:38;4.35;;;3.67;;
27071;SDS011;14613;46.308;25.288;2022-07-31T08:06:04;5.63;;;2.90;;
27071;SDS011;14613;46.308;25.288;2022-07-31T08:08:30;3.67;;;3.38;;
27071;SDS011;14613;46.308;25.288;2022-07-31T08:10:56;3.22;;;3.03;;
27071;SDS011;14613;46.308;25.288;2022-07-31T08:13:22;7.28;;;3.53;;
27071;SDS011;14613;46.308;25.288;2022-07-31T08:15:48;3.88;;;3.13;;
27071;SDS011;14613;46.308;25.288;2022-07-31T08:18:14;3.22;;;3.03;;
27071;SDS011;14613;46.308;25.288;2022-07-31T08:20:41;5.20;;;3.38;;
27071;SDS011;14613;46.308;25.288;2022-07-31T08:23:07;6.15;;;3.47;;
27071;SDS011;14613;46.308;25.288;2022-07-31T08:25:32;3.35;;;3.05;;
27071;SDS011;14613;46.308;25.288;2022-07-31T08:27:58;4.07;;;3.08;;
27071;SDS011;14613;46.308;25.288;2022-07-31T08:30:24;4.90;;;2.92;;
27071;SDS011;14613;46.308;25.288;2022-07-31T08:32:50;2.83;;;2.63;;
27071;SDS011;14613;46.308;25.288;2022-07-31T08:35:15;3.40;;;3.10;;
27071;SDS011;14613;46.308;25.288;2022-07-31T08:37:41;6.13;;;3.38;;
27071;SDS011;14613;46.308;25.288;2022-07-31T08:40:07;3.60;;;3.30;;
27071;SDS011;14613;46.308;25.288;2022-07-31T08:42:34;7.70;;;3.42;;
27071;SDS011;14613;46.308;25.288;2022-07-31T08:45:01;3.42;;;2.85;;
27071;SDS011;14613;46.308;25.288;2022-07-31T08:47:31;2.97;;;2.78;;
27071;SDS011;14613;46.308;25.288;2022-07-31T08:49:59;2.85;;;2.65;;
27071;SDS011;14613;46.308;25.288;2022-07-31T08:52:26;2.80;;;2.60;;
27071;SDS011;14613;46.308;25.288;2022-07-31T08:54:56;2.50;;;2.30;;
27071;SDS011;14613;46.308;25.288;2022-07-31T08:57:23;2.88;;;2.67;;
27071;SDS011;14613;46.308;25.288;2022-07-31T08:59:51;2.80;;;2.60;;
27071;SDS011;14613;46.308;25.288;2022-07-31T09:02:18;3.55;;;2.38;;
27071;SDS011;14613;46.308;25.288;2022-07-31T09:04:44;2.53;;;2.33;;
27071;SDS011;14613;46.308;25.288;2022-07-31T09:07:12;2.45;;;2.25;;
27071;SDS011;14613;46.308;25.288;2022-07-31T09:09:43;2.40;;;2.20;;
27071;SDS011;14613;46.308;25.288;2022-07-31T09:12:09;2.53;;;2.30;;
27071;SDS011;14613;46.308;25.288;2022-07-31T09:14:36;2.85;;;2.55;;
27071;SDS011;14613;46.308;25.288;2022-07-31T09:17:02;2.47;;;2.28;;
27071;SDS011;14613;46.308;25.288;2022-07-31T09:19:36;3.70;;;2.58;;
27071;SDS011;14613;46.308;25.288;2022-07-31T09:22:06;2.72;;;2.53;;
27071;SDS011;14613;46.308;25.288;2022-07-31T09:24:51;2.58;;;2.38;;
27071;SDS011;14613;46.308;25.288;2022-07-31T09:27:18;4.43;;;2.78;;
27071;SDS011;14613;46.308;25.288;2022-07-31T09:29:44;3.92;;;2.97;;
27071;SDS011;14613;46.308;25.288;2022-07-31T09:32:17;3.47;;;3.15;;
27071;SDS011;14613;46.308;25.288;2022-07-31T09:34:45;3.28;;;3.08;;
27071;SDS011;14613;46.308;25.288;2022-07-31T09:37:12;2.60;;;2.40;;
27071;SDS011;14613;46.308;25.288;2022-07-31T09:39:39;3.88;;;3.40;;
27071;SDS011;14613;46.308;25.288;2022-07-31T09:42:05;5.82;;;3.92;;
27071;SDS011;14613;46.308;25.288;2022-07-31T09:44:36;3.70;;;3.17;;
27071;SDS011;14613;46.308;25.288;2022-07-31T09:47:04;3.55;;;3.25;;
27071;SDS011;14613;46.308;25.288;2022-07-31T09:49:31;4.05;;;3.65;;
27071;SDS011;14613;46.308;25.288;2022-07-31T09:51:57;5.93;;;3.92;;
27071;SDS011;14613;46.308;25.288;2022-07-31T09:54:26;4.50;;;4.10;;
27071;SDS011;14613;46.308;25.288;2022-07-31T09:56:53;4.10;;;3.70;;
27071;SDS011;14613;46.308;25.288;2022-07-31T09:59:19;4.55;;;4.15;;
27071;SDS011;14613;46.308;25.288;2022-07-31T10:01:45;4.38;;;3.97;;
27071;SDS011;14613;46.308;25.288;2022-07-31T10:04:13;7.13;;;3.72;;
27071;SDS011;14613;46.308;25.288;2022-07-31T10:06:45;4.13;;;3.38;;
27071;SDS011;14613;46.308;25.288;2022-07-31T10:09:12;4.22;;;3.53;;
27071;SDS011;14613;46.308;25.288;2022-07-31T10:11:39;4.28;;;3.88;;
27071;SDS011;14613;46.308;25.288;2022-07-31T10:14:06;5.65;;;4.07;;
27071;SDS011;14613;46.308;25.288;2022-07-31T10:16:39;6.72;;;3.15;;
27071;SDS011;14613;46.308;25.288;2022-07-31T10:19:08;5.13;;;2.88;;
27071;SDS011;14613;46.308;25.288;2022-07-31T10:21:37;3.60;;;2.78;;
27071;SDS011;14613;46.308;25.288;2022-07-31T10:24:06;3.00;;;2.80;;
27071;SDS011;14613;46.308;25.288;2022-07-31T10:26:34;2.90;;;2.17;;
27071;SDS011;14613;46.308;25.288;2022-07-31T10:28:59;2.97;;;2.72;;
27071;SDS011;14613;46.308;25.288;2022-07-31T10:31:26;2.30;;;2.10;;
27071;SDS011;14613;46.308;25.288;2022-07-31T10:33:52;2.40;;;2.20;;
27071;SDS011;14613;46.308;25.288;2022-07-31T10:36:31;2.67;;;2.33;;
27071;SDS011;14613;46.308;25.288;2022-07-31T10:39:00;4.95;;;1.83;;
27071;SDS011;14613;46.308;25.288;2022-07-31T10:44:28;3.67;;;1.73;;
27071;SDS011;14613;46.308;25.288;2022-07-31T10:47:10;5.00;;;2.00;;
27071;SDS011;14613;46.308;25.288;2022-07-31T10:49:44;1.77;;;1.67;;
27071;SDS011;14613;46.308;25.288;2022-07-31T10:52:13;2.13;;;1.83;;
27071;SDS011;14613;46.308;25.288;2022-07-31T10:54:51;3.90;;;2.00;;
27071;SDS011;14613;46.308;25.288;2022-07-31T10:57:22;1.63;;;1.52;;
27071;SDS011;14613;46.308;25.288;2022-07-31T11:00:14;1.90;;;1.67;;
27071;SDS011;14613;46.308;25.288;2022-07-31T11:02:42;1.58;;;1.48;;
27071;SDS011;14613;46.308;25.288;2022-07-31T11:05:13;1.63;;;1.52;;
27071;SDS011;14613;46.308;25.288;2022-07-31T11:08:02;6.28;;;1.80;;
27071;SDS011;14613;46.308;25.288;2022-07-31T11:10:29;2.20;;;1.58;;
27071;SDS011;14613;46.308;25.288;2022-07-31T11:13:02;1.52;;;1.42;;
27071;SDS011;14613;46.308;25.288;2022-07-31T11:15:30;1.45;;;1.13;;
27071;SDS011;14613;46.308;25.288;2022-07-31T11:17:56;0.98;;;0.98;;
27071;SDS011;14613;46.308;25.288;2022-07-31T11:22:53;1.38;;;1.27;;
27071;SDS011;14613;46.308;25.288;2022-07-31T11:25:20;3.58;;;1.27;;
27071;SDS011;14613;46.308;25.288;2022-07-31T11:27:47;1.30;;;1.20;;
27071;SDS011;14613;46.308;25.288;2022-07-31T11:30:13;1.30;;;1.20;;
27071;SDS011;14613;46.308;25.288;2022-07-31T11:32:40;1.52;;;1.40;;
27071;SDS011;14613;46.308;25.288;2022-07-31T11:35:23;2.00;;;1.63;;
27071;SDS011;14613;46.308;25.288;2022-07-31T11:37:53;1.50;;;1.40;;
27071;SDS011;14613;46.308;25.288;2022-07-31T11:40:19;2.60;;;1.65;;
27071;SDS011;14613;46.308;25.288;2022-07-31T11:42:45;2.90;;;1.70;;
27071;SDS011;14613;46.308;25.288;2022-07-31T11:45:11;2.22;;;1.83;;
27071;SDS011;14613;46.308;25.288;2022-07-31T11:47:45;3.80;;;1.10;;
27071;SDS011;14613;46.308;25.288;2022-07-31T11:50:12;1.58;;;1.48;;
27071;SDS011;14613;46.308;25.288;2022-07-31T11:52:39;5.45;;;1.50;;
27071;SDS011;14613;46.308;25.288;2022-07-31T11:55:10;2.45;;;1.38;;
27071;SDS011;14613;46.308;25.288;2022-07-31T11:57:37;5.85;;;1.73;;
27071;SDS011;14613;46.308;25.288;2022-07-31T12:00:14;1.63;;;1.52;;
27071;SDS011;14613;46.308;25.288;2022-07-31T12:02:44;4.47;;;1.73;;
27071;SDS011;14613;46.308;25.288;2022-07-31T12:05:11;1.83;;;1.52;;
27071;SDS011;14613;46.308;25.288;2022-07-31T12:07:41;1.60;;;1.50;;
27071;SDS011;14613;46.308;25.288;2022-07-31T12:10:11;1.60;;;1.50;;
27071;SDS011;14613;46.308;25.288;2022-07-31T12:12:38;6.13;;;2.97;;
27071;SDS011;14613;46.308;25.288;2022-07-31T12:15:18;3.15;;;1.80;;
27071;SDS011;14613;46.308;25.288;2022-07-31T12:17:45;2.47;;;1.80;;
27071;SDS011;14613;46.308;25.288;2022-07-31T12:20:11;1.77;;;1.67;;
27071;SDS011;14613;46.308;25.288;2022-07-31T12:22:38;4.00;;;2.00;;
27071;SDS011;14613;46.308;25.288;2022-07-31T12:25:04;3.80;;;1.95;;
27071;SDS011;14613;46.308;25.288;2022-07-31T12:27:33;1.90;;;1.52;;
27071;SDS011;14613;46.308;25.288;2022-07-31T12:30:10;1.80;;;1.70;;
27071;SDS011;14613;46.308;25.288;2022-07-31T12:32:40;5.93;;;1.92;;
27071;SDS011;14613;46.308;25.288;2022-07-31T12:35:06;2.75;;;1.90;;
27071;SDS011;14613;46.308;25.288;2022-07-31T12:37:41;1.80;;;1.70;;
27071;SDS011;14613;46.308;25.288;2022-07-31T12:40:08;2.20;;;2.00;;
27071;SDS011;14613;46.308;25.288;2022-07-31T12:42:45;2.05;;;1.85;;
27071;SDS011;14613;46.308;25.288;2022-07-31T12:45:10;1.92;;;1.83;;
27071;SDS011;14613;46.308;25.288;2022-07-31T12:47:36;3.35;;;3.03;;
27071;SDS011;14613;46.308;25.288;2022-07-31T12:50:02;2.60;;;1.90;;
27071;SDS011;14613;46.308;25.288;2022-07-31T12:52:28;1.90;;;1.80;;
27071;SDS011;14613;46.308;25.288;2022-07-31T12:54:55;2.22;;;2.13;;
27071;SDS011;14613;46.308;25.288;2022-07-31T12:57:22;1.70;;;1.60;;
27071;SDS011;14613;46.308;25.288;2022-07-31T12:59:47;3.25;;;1.77;;
27071;SDS011;14613;46.308;25.288;2022-07-31T13:02:13;4.80;;;1.98;;
27071;SDS011;14613;46.308;25.288;2022-07-31T13:04:40;2.45;;;2.25;;
27071;SDS011;14613;46.308;25.288;2022-07-31T13:07:06;2.35;;;2.15;;
27071;SDS011;14613;46.308;25.288;2022-07-31T13:09:32;1.92;;;1.83;;
27071;SDS011;14613;46.308;25.288;2022-07-31T13:11:58;2.13;;;1.95;;
27071;SDS011;14613;46.308;25.288;2022-07-31T13:14:24;4.72;;;2.15;;
27071;SDS011;14613;46.308;25.288;2022-07-31T13:16:51;2.85;;;1.92;;
27071;SDS011;14613;46.308;25.288;2022-07-31T13:19:19;2.15;;;1.75;;
27071;SDS011;14613;46.308;25.288;2022-07-31T13:21:45;2.03;;;1.85;;
27071;SDS011;14613;46.308;25.288;2022-07-31T13:24:13;2.38;;;1.55;;
27071;SDS011;14613;46.308;25.288;2022-07-31T13:26:39;5.45;;;2.20;;
27071;SDS011;14613;46.308;25.288;2022-07-31T13:29:05;2.53;;;2.13;;
27071;SDS011;14613;46.308;25.288;2022-07-31T13:31:31;2.42;;;2.10;;
27071;SDS011;14613;46.308;25.288;2022-07-31T13:33:58;3.97;;;2.08;;
27071;SDS011;14613;46.308;25.288;2022-07-31T13:36:24;2.47;;;2.20;;
27071;SDS011;14613;46.308;25.288;2022-07-31T13:38:50;4.18;;;1.75;;
27071;SDS011;14613;46.308;25.288;2022-07-31T13:41:16;2.78;;;2.55;;
27071;SDS011;14613;46.308;25.288;2022-07-31T13:43:45;1.90;;;1.80;;
27071;SDS011;14613;46.308;25.288;2022-07-31T13:46:11;2.28;;;2.08;;
27071;SDS011;14613;46.308;25.288;2022-07-31T13:48:37;2.65;;;1.92;;
27071;SDS011;14613;46.308;25.288;2022-07-31T13:51:03;2.35;;;2.00;;
27071;SDS011;14613;46.308;25.288;2022-07-31T13:53:29;1.98;;;1.75;;
27071;SDS011;14613;46.308;25.288;2022-07-31T13:55:54;2.03;;;1.90;;
27071;SDS011;14613;46.308;25.288;2022-07-31T13:58:22;8.32;;;2.15;;
27071;SDS011;14613;46.308;25.288;2022-07-31T14:00:51;3.65;;;1.83;;
27071;SDS011;14613;46.308;25.288;2022-07-31T14:03:17;2.22;;;2.05;;
27071;SDS011;14613;46.308;25.288;2022-07-31T14:05:43;2.70;;;1.80;;
27071;SDS011;14613;46.308;25.288;2022-07-31T14:08:08;2.00;;;1.90;;
27071;SDS011;14613;46.308;25.288;2022-07-31T14:10:34;2.30;;;2.17;;
27071;SDS011;14613;46.308;25.288;2022-07-31T14:13:00;7.80;;;2.47;;
27071;SDS011;14613;46.308;25.288;2022-07-31T14:15:26;1.90;;;1.80;;
27071;SDS011;14613;46.308;25.288;2022-07-31T14:17:51;2.75;;;2.10;;
27071;SDS011;14613;46.308;25.288;2022-07-31T14:20:17;2.10;;;1.90;;
27071;SDS011;14613;46.308;25.288;2022-07-31T14:22:43;2.13;;;1.77;;
27071;SDS011;14613;46.308;25.288;2022-07-31T14:25:09;2.72;;;1.77;;
27071;SDS011;14613;46.308;25.288;2022-07-31T14:27:36;2.25;;;2.05;;
27071;SDS011;14613;46.308;25.288;2022-07-31T14:30:06;2.70;;;2.00;;
27071;SDS011;14613;46.308;25.288;2022-07-31T14:32:32;2.35;;;2.15;;
27071;SDS011;14613;46.308;25.288;2022-07-31T14:34:58;3.28;;;2.15;;
27071;SDS011;14613;46.308;25.288;2022-07-31T14:37:24;2.15;;;1.95;;
27071;SDS011;14613;46.308;25.288;2022-07-31T14:39:50;3.10;;;2.22;;
27071;SDS011;14613;46.308;25.288;2022-07-31T14:42:16;2.38;;;2.17;;
27071;SDS011;14613;46.308;25.288;2022-07-31T14:44:42;4.18;;;2.15;;
27071;SDS011;14613;46.308;25.288;2022-07-31T14:47:09;2.42;;;2.10;;
27071;SDS011;14613;46.308;25.288;2022-07-31T14:49:35;3.05;;;1.98;;